• Join FlightAware (Why Join?)
  • Login
  • US Flag 
04:37AM EDT


 

Airport Tracker/Info


-or-


 

Live Flight TrackerFlight Track Log ✈ ACA831 ✈ 04-May-2013 ✈ LSGG / GVA - CYUL

Flight Track Log - Related Links

Times and Time Zones

All times are in EDT time to prevent confusion due to time zone crossing. See the ACA831 flight status page for this flight to view local times or setup timezone preferences in your user account.

Time Position Orientation Groundspeed Altitude Reporting Facility
EDT Latitude Longitude Course Direction KTS MPH feet Rate Location/Type
06:41AM 46.2230 6.0870 225° Southwest 183 211 2,500  Level FlightAware
06:42AM 46.2040 6.0590 226° Southwest 184 212 3,900 2,520 Climbing FlightAware
06:42AM 46.1950 6.0470 223° Southwest 190 219 4,400 2,400 Climbing FlightAware
06:43AM 46.1790 6.0220 227° Southwest 190 219 5,500 2,460 Climbing FlightAware
06:43AM 46.1590 5.9930 225° Southwest 198 228 6,700 2,100 Climbing FlightAware
06:43AM 46.1500 5.9790 227° Southwest 205 236 7,100 1,200 Climbing FlightAware
06:44AM 46.1440 5.9590 247° West 230 265 7,300 1,020 Climbing FlightAware
06:44AM 46.1540 5.9250 293° West 243 280 7,800 1,620 Climbing FlightAware
06:44AM 46.1690 5.9090 324° Northwest 248 285 8,400 2,520 Climbing FlightAware
06:45AM 46.1920 5.8880 328° Northwest 247 284 9,500 2,040 Climbing FlightAware
06:45AM 46.2440 5.8430 329° Northwest 298 343 10,800 1,620 Climbing FlightAware
06:46AM 46.2960 5.7990 330° Northwest 344 396 11,800 2,160 Climbing FlightAware
06:47AM 46.3610 5.7420 329° Northwest 369 425 13,900 2,820 Climbing FlightAware
06:47AM 46.4230 5.6870 329° Northwest 386 444 15,800 2,820 Climbing FlightAware
06:48AM 46.4850 5.6340 330° Northwest 393 452 17,700 2,700 Climbing FlightAware
06:49AM 46.5530 5.5740 329° Northwest 401 461 19,700 2,460 Climbing FlightAware
06:50AM 46.6160 5.5180 329° Northwest 411 473 21,200 2,220 Climbing FlightAware
06:50AM 46.6930 5.4500 329° Northwest 422 486 22,900 2,100 Climbing FlightAware
06:51AM 46.7600 5.3910 329° Northwest 433 498 24,200 1,980 Climbing FlightAware
06:52AM 46.8290 5.3300 329° Northwest 439 505 25,600 1,860 Climbing FlightAware
06:52AM 46.9010 5.2640 328° Northwest 446 513 26,900 1,980 Climbing FlightAware
06:54AM 47.0170 5.1550 327° Northwest 439 505 29,500 2,220 Climbing FlightAware
06:54AM 47.0770 5.0970 327° Northwest 429 494 30,800 1,740 Climbing FlightAware
06:55AM 47.1650 5.0130 327° Northwest 436 502 32,000 780 Climbing FlightAware
06:56AM 47.2370 4.9450 327° Northwest 440 506 32,000  Level FlightAware
06:56AM 47.3030 4.8840 328° Northwest 440 506 32,000  Level FlightAware
06:57AM 47.3820 4.8070 327° Northwest 439 505 32,000  Level FlightAware
06:58AM 47.4420 4.7180 315° West 438 504 32,000  Level FlightAware
06:58AM 47.4930 4.6310 311° West 436 502 32,000  Level FlightAware
06:59AM 47.5500 4.5330 311° West 439 505 32,000  Level FlightAware
07:00AM 47.6190 4.4130 310° West 433 498 32,000  Level FlightAware
07:01AM 47.6840 4.2980 310° West 433 498 32,000  Level FlightAware
07:03AM 47.7836 4.0239 298° West  Level Estimated
07:03AM 47.8150 4.0680 298° West 432 497 32,000  Level FlightAware
07:04AM 47.9630 3.8070 298° West 430 495 32,000  Level FlightAware
07:05AM 47.9283 3.7525 298° West  Level Estimated
07:05AM 48.0240 3.6980 310° West 433 498 32,000  Level FlightAware
07:05AM 48.0468 3.6563 309° West 435 501 32,000  Level FlightAware ADS-B
07:06AM 48.0874 3.5835 310° West 434 499 32,000  Level FlightAware ADS-B
07:07AM 48.1260 3.5140 310° West 433 498 32,000  Level FlightAware
07:07AM 48.1840 3.4100 310° West 433 498 32,000  Level FlightAware
07:08AM 48.2310 3.3240 309° West 434 499 32,000  Level FlightAware
07:09AM 48.2940 3.2100 310° West 435 501 32,000  Level FlightAware
07:09AM 48.3425 3.1212 309° West 436 502 32,000  Level FlightAware ADS-B
07:10AM 48.3819 3.0491 309° West 436 502 32,000  Level FlightAware ADS-B
07:10AM 48.4041 3.0061 308° West 436 502 32,000  Level FlightAware ADS-B
07:11AM 48.4330 2.9100 294° West 436 502 32,000  Level FlightAware
07:11AM 48.4422 2.8678 288° West 439 505 32,000  Level FlightAware ADS-B
07:11AM 48.4604 2.7740 286° West 440 506 32,000  Level FlightAware ADS-B
07:12AM 48.4772 2.6848 286° West 439 505 32,000  Level FlightAware ADS-B
07:12AM 48.4953 2.5890 286° West 438 504 32,000  Level FlightAware ADS-B
07:13AM 48.5122 2.5005 286° West 437 503 32,000  Level FlightAware ADS-B
07:14AM 48.5403 2.3535 286° West 435 501 32,000  Level FlightAware ADS-B
07:14AM 48.5574 2.2634 286° West 435 501 32,000  Level FlightAware ADS-B
07:15AM 48.5759 2.1655 286° West 433 498 32,000 -1,500 Level FlightAware ADS-B
07:15AM 48.5920 2.0853 286° West 452 520 30,500  Descending FlightAware UK
07:16AM 48.5953 2.0621 286° West 433 498 32,000  Climbing FlightAware ADS-B
07:16AM 48.6109 1.9800 286° West 456 525 30,500  Descending FlightAware UK
07:16AM 48.6154 1.9542 286° West 433 498 32,000 2,220 Climbing FlightAware ADS-B
07:17AM 48.6317 1.8662 286° West 433 498 32,000  Level FlightAware ADS-B
07:17AM 48.6486 1.7748 286° West 432 497 32,000  Level FlightAware ADS-B
07:18AM 48.6649 1.6860 286° West 432 497 32,000  Level FlightAware ADS-B
07:18AM 48.6814 1.5955 285° West 432 497 32,000 -2,040 Level FlightAware ADS-B
07:18AM 48.6903 1.5445 285° West 454 522 30,400  Descending FlightAware UK
07:19AM 48.7050 1.4680 285° West 432 497 32,000 1,860 Climbing FlightAware
07:19AM 48.7175 1.3966 285° West 431 496 32,000 -2,100 Level FlightAware ADS-B
07:20AM 48.7282 1.3354 285° West 456 525 30,500 -2,340 Descending FlightAware UK
07:20AM 48.7378 1.2834 286° West 458 527 30,500 3,060 Level FlightAware UK
07:20AM 48.7435 1.2516 286° West 430 495 32,000  Climbing FlightAware ADS-B
07:21AM 48.7561 1.1794 286° West 452 520 30,500 -2,100 Descending FlightAware UK
07:21AM 48.7655 1.1280 285° West 452 520 30,500 3,900 Level FlightAware UK
07:21AM 48.7670 1.1210 285° West 429 494 32,000 -300 Climbing FlightAware
07:21AM 48.7777 1.0584 285° West 454 522 30,400 -2,460 Descending FlightAware UK
07:22AM 48.7868 1.0062 285° West 456 525 30,500 3,060 Climbing FlightAware UK
07:22AM 48.7930 0.9750 285° West 428 493 32,000  Climbing FlightAware
07:22AM 48.8021 0.9193 285° West 458 527 30,500 -2,580 Descending FlightAware UK
07:22AM 48.8113 0.8673 285° West 458 527 30,500 3,900 Level FlightAware UK
07:22AM 48.8130 0.8600 285° West 427 491 32,000  Climbing FlightAware
07:23AM 48.8264 0.7805 285° West 456 525 30,500  Descending FlightAware UK
07:23AM 48.8330 0.7420 285° West 426 490 32,000  Climbing FlightAware
07:24AM 48.8531 0.6252 285° West 452 520 30,500  Descending FlightAware UK
07:24AM 48.8520 0.6350 285° West 426 490 32,000  Climbing FlightAware
07:24AM 48.8711 0.5214 285° West 450 518 30,500  Descending FlightAware UK
07:25AM 48.8750 0.4990 285° West 426 490 32,000  Climbing FlightAware
07:25AM 48.8860 0.4365 285° West 450 518 30,500 -2,460 Descending FlightAware UK
07:25AM 48.8950 0.3857 285° West 450 518 30,500 3,600 Level FlightAware UK
07:25AM 48.8980 0.3660 285° West 428 493 32,000  Climbing FlightAware
07:26AM 48.9068 0.3161 285° West 448 516 30,500 -2,700 Descending FlightAware UK
07:26AM 48.9076 0.2610 271° West 448 516 30,500 3,720 Level FlightAware UK
07:26AM 48.9080 0.2510 271° West 435 501 32,000  Climbing FlightAware
07:26AM 48.9034 0.1510 271° West 452 520 30,500  Descending FlightAware UK
07:27AM 48.9030 0.1260 271° West 437 503 32,000  Climbing FlightAware
07:27AM 48.8987 0.0413 271° West 450 518 30,500  Descending FlightAware UK
07:27AM 48.8970 -0.0080 271° West 439 505 32,000 1,500 Climbing FlightAware
07:28AM 48.8910 -0.1320 266° West 442 509 32,000 -1,200 Level FlightAware
07:29AM 48.8829 -0.2562 266° West 452 520 30,500  Descending FlightAware UK
07:29AM 48.8840 -0.2760 266° West 445 512 32,000 2,340 Climbing FlightAware
07:29AM 48.8780 -0.3670 264° West 445 512 32,000  Level FlightAware
07:30AM 48.8900 -0.5000 264° West 435 501 32,000 -1,980 Level FlightAware
07:30AM 48.8907 -0.5133 264° West 456 525 30,500 -4,740 Descending FlightAware UK
07:30AM 48.9022 -0.5651 264° West 458 527 30,500 1,800 Level FlightAware UK
07:31AM 48.9160 -0.6330 264° West 433 498 32,000  Climbing FlightAware
07:31AM 48.9291 -0.7050 264° West 458 527 30,500  Descending FlightAware UK
07:31AM 48.9390 -0.7480 264° West 435 501 32,000  Climbing FlightAware
07:32AM 48.9536 -0.8277 264° West 460 529 30,500  Descending FlightAware UK
07:32AM 48.9680 -0.8920 264° West 435 501 32,000 240 Climbing FlightAware
07:33AM 48.9814 -0.9675 264° West 458 527 30,700 1,200 Descending FlightAware UK
07:33AM 48.9920 -1.0150 264° West 431 496 32,800 1,620 Climbing FlightAware
07:33AM 49.0023 -1.0726 264° West 452 520 31,700 -1,740 Descending FlightAware UK
07:34AM 49.0129 -1.1249 287° West 454 522 31,800 3,840 Climbing FlightAware UK
07:34AM 49.0160 -1.1350 287° West 436 502 33,500 780 Climbing FlightAware
07:34AM 49.0301 -1.2119 287° West 456 525 32,200 600 Descending FlightAware UK
07:34AM 49.0410 -1.2640 287° West 435 501 33,900 480 Climbing FlightAware
07:35AM 49.0507 -1.3180 287° West 454 522 32,500 120 Descending FlightAware UK
07:35AM 49.0670 -1.3950 287° West 431 496 34,000  Climbing FlightAware
07:35AM 49.0779 -1.4584 287° West 448 516 32,500  Descending FlightAware UK
07:36AM 49.0850 -1.4910 287° West 432 497 34,000  Climbing FlightAware
07:36AM 49.0974 -1.5629 287° West 450 518 32,500 -2,100 Descending FlightAware UK
07:36AM 49.1110 -1.6329 287° West 450 518 32,500 3,600 Level FlightAware UK
07:36AM 49.1110 -1.6270 287° West 435 501 34,000  Climbing FlightAware
07:37AM 49.1215 -1.6854 287° West 452 520 32,500 -2,580 Descending FlightAware UK
07:37AM 49.1320 -1.7385 287° West 452 520 32,500 3,180 Level FlightAware UK
07:37AM 49.1360 -1.7600 287° West 440 506 34,000  Climbing FlightAware
07:38AM 49.1523 -1.8453 287° West 452 520 32,500  Descending FlightAware UK
07:38AM 49.1590 -1.8810 287° West 443 510 34,000  Climbing FlightAware
07:38AM 49.1692 -1.9357 287° West 452 520 32,500  Descending FlightAware UK
07:39AM 49.1800 -1.9940 287° West 446 513 34,000  Climbing FlightAware
07:39AM 49.1961 -2.0801 287° West 454 522 32,500  Descending FlightAware UK
07:39AM 49.2010 -2.1050 287° West 449 517 34,000  Climbing FlightAware
07:40AM 49.2265 -2.2465 287° West 454 522 32,500  Descending FlightAware UK
07:40AM 49.2260 -2.2410 287° West 450 518 34,000  Climbing FlightAware
07:40AM 49.2406 -2.3201 287° West 456 525 32,500 -2,340 Descending FlightAware UK
07:41AM 49.2509 -2.3759 286° West 456 525 32,500 3,060 Level FlightAware UK
07:41AM 49.2530 -2.3850 286° West 452 520 34,000  Climbing FlightAware
07:41AM 49.2679 -2.4686 286° West 456 525 32,500  Descending FlightAware UK
07:41AM 49.2770 -2.5170 286° West 456 525 34,000  Climbing FlightAware
07:42AM 49.2878 -2.5804 286° West 458 527 32,500  Descending FlightAware UK
07:42AM 49.3020 -2.6530 286° West 457 526 34,000  Climbing FlightAware
07:42AM 49.3146 -2.7290 286° West 460 529 32,500  Descending FlightAware UK
07:43AM 49.3230 -2.7750 286° West 457 526 34,000  Climbing FlightAware
07:43AM 49.3415 -2.8789 286° West 458 527 32,500  Descending FlightAware UK
07:43AM 49.3460 -2.9010 286° West 458 527 34,000  Climbing FlightAware
07:44AM 49.3548 -2.9533 286° West 456 525 32,500 -2,340 Descending FlightAware UK
07:44AM 49.3678 -3.0277 285° West 456 525 32,500 2,520 Level FlightAware UK
07:44AM 49.3730 -3.0550 285° West 458 527 34,000  Climbing FlightAware
07:45AM 49.3913 -3.1589 285° West 456 525 32,500  Descending FlightAware UK
07:45AM 49.3910 -3.1550 285° West 457 526 34,000  Climbing FlightAware
07:45AM 49.4045 -3.2339 285° West 454 522 32,500  Descending FlightAware UK
07:46AM 49.4200 -3.3200 285° West 456 525 34,000  Climbing FlightAware
07:46AM 49.4336 -3.4026 285° West 454 522 32,500  Descending FlightAware UK
07:46AM 49.4410 -3.4460 285° West 457 526 34,000  Climbing FlightAware
07:47AM 49.4627 -3.5709 285° West 452 520 32,500  Descending FlightAware UK
07:47AM 49.4630 -3.5710 285° West 457 526 34,000  Climbing FlightAware
07:47AM 49.4725 -3.6271 285° West 452 520 32,500  Descending FlightAware UK
07:48AM 49.4870 -3.7140 285° West 457 526 34,000  Climbing FlightAware
07:48AM 49.5043 -3.8151 285° West 450 518 32,500  Descending FlightAware UK
07:48AM 49.5080 -3.8370 285° West 457 526 34,000  Climbing FlightAware
07:49AM 49.5169 -3.8904 285° West 450 518 32,500 -2,760 Descending FlightAware UK
07:49AM 49.5265 -3.9470 285° West 450 518 32,500 3,600 Level FlightAware UK
07:49AM 49.5300 -3.9640 285° West 458 527 34,000  Climbing FlightAware
07:49AM 49.5391 -4.0220 285° West 450 518 32,500 -2,280 Descending FlightAware UK
07:50AM 49.5517 -4.0977 284° West 450 518 32,500 3,060 Level FlightAware UK
07:50AM 49.5530 -4.1060 284° West 459 528 34,000  Climbing FlightAware
07:50AM 49.5643 -4.1734 284° West 452 520 32,500  Descending FlightAware UK
07:50AM 49.5740 -4.2290 284° West 460 529 34,000  Climbing FlightAware
07:51AM 49.5830 -4.2873 284° West 452 520 32,500 -2,340 Descending FlightAware UK
07:51AM 49.5955 -4.3633 284° West 452 520 32,500 3,600 Level FlightAware UK
07:51AM 49.5950 -4.3580 284° West 460 529 34,000  Climbing FlightAware
07:51AM 49.6054 -4.4203 284° West 452 520 32,500 -2,580 Descending FlightAware UK
07:52AM 49.6163 -4.4768 287° West 452 520 32,500 3,180 Level FlightAware UK
07:52AM 49.6210 -4.4970 287° West 460 529 34,000  Climbing FlightAware
07:52AM 49.6344 -4.5712 287° West 452 520 32,500 -2,400 Descending FlightAware UK
07:53AM 49.6451 -4.6279 286° West 452 520 32,500 4,500 Level FlightAware UK
07:53AM 49.6440 -4.6250 286° West 462 532 34,000  Climbing FlightAware
07:53AM 49.6554 -4.6848 286° West 452 520 32,500 -2,700 Descending FlightAware UK
07:53AM 49.6657 -4.7419 286° West 452 520 32,500 3,060 Level FlightAware UK
07:53AM 49.6700 -4.7680 286° West 463 533 34,000  Climbing FlightAware
07:54AM 49.6824 -4.8367 286° West 454 522 32,500 -2,460 Descending FlightAware UK
07:54AM 49.6924 -4.8942 285° West 454 522 32,500 4,260 Level FlightAware UK
07:54AM 49.6930 -4.8950 285° West 464 534 34,000  Climbing FlightAware
07:54AM 49.7024 -4.9516 285° West 454 522 32,500 -2,760 Descending FlightAware UK
07:55AM 49.7126 -5.0092 285° West 456 525 32,500 3,600 Level FlightAware UK
07:55AM 49.7150 -5.0240 285° West 464 534 34,000  Climbing FlightAware
07:55AM 49.7260 -5.0858 285° West 454 522 32,500 -2,580 Descending FlightAware UK
07:55AM 49.7362 -5.1432 285° West 454 522 32,500 3,180 Level FlightAware UK
07:55AM 49.7400 -5.1670 285° West 465 535 34,000  Climbing FlightAware
07:56AM 49.7530 -5.2392 285° West 454 522 32,500 -2,400 Descending FlightAware UK
07:56AM 49.7629 -5.2968 285° West 454 522 32,500 4,500 Level FlightAware UK
07:56AM 49.7630 -5.2970 285° West 464 534 34,000  Climbing FlightAware
07:56AM 49.7729 -5.3544 285° West 456 525 32,500 -2,700 Descending FlightAware UK
07:57AM 49.7827 -5.4121 285° West 454 522 32,500 3,060 Level FlightAware UK
07:57AM 49.7870 -5.4360 285° West 464 534 34,000  Climbing FlightAware
07:57AM 49.7992 -5.5084 285° West 456 525 32,500 -2,460 Descending FlightAware UK
07:57AM 49.8091 -5.5661 285° West 454 522 32,500 4,260 Level FlightAware UK
07:57AM 49.8100 -5.5680 285° West 465 535 34,000  Climbing FlightAware
07:58AM 49.8190 -5.6238 285° West 454 522 32,500 -2,760 Descending FlightAware UK
07:58AM 49.8290 -5.6815 285° West 454 522 32,500 3,000 Level FlightAware UK
07:58AM 49.8340 -5.7130 285° West 464 534 34,000  Climbing FlightAware
07:59AM 49.8452 -5.7779 285° West 452 520 32,500 -2,520 Descending FlightAware UK
07:59AM 49.8549 -5.8356 285° West 454 522 32,500 4,080 Level FlightAware UK
07:59AM 49.8560 -5.8400 285° West 465 535 34,000  Climbing FlightAware
07:59AM 49.8709 -5.9313 285° West 454 522 32,500  Descending FlightAware UK
08:00AM 49.8770 -5.9670 285° West 465 535 34,000  Climbing FlightAware
08:00AM 49.8870 -6.0279 285° West 454 522 32,500 -2,700 Descending FlightAware UK
08:00AM 49.8966 -6.0858 284° West 454 522 32,500 3,060 Level FlightAware UK
08:00AM 49.9020 -6.1150 284° West 465 535 34,000  Climbing FlightAware
08:01AM 49.9158 -6.2018 284° West 454 522 32,500  Descending FlightAware UK
08:01AM 49.9230 -6.2430 284° West 465 535 34,000  Climbing FlightAware
08:01AM 49.9317 -6.2985 284° West 452 520 32,500 -2,760 Descending FlightAware UK
08:02AM 49.9411 -6.3565 284° West 454 522 32,500 3,000 Level FlightAware UK
08:02AM 49.9460 -6.3840 284° West 464 534 34,000  Climbing FlightAware
08:02AM 49.9567 -6.4532 284° West 454 522 32,500 -2,520 Descending FlightAware UK
08:02AM 49.9661 -6.5112 284° West 454 522 32,500 4,080 Level FlightAware UK
08:02AM 49.9670 -6.5160 284° West 464 534 34,000  Climbing FlightAware
08:03AM 49.9786 -6.5885 284° West 454 522 32,500 -2,400 Descending FlightAware UK
08:03AM 49.9880 -6.6466 284° West 454 522 32,500 4,500 Level FlightAware UK
08:03AM 49.9880 -6.6450 284° West 464 534 34,000  Climbing FlightAware
08:03AM 49.9974 -6.7047 284° West 454 522 32,500 -2,700 Descending FlightAware UK
08:04AM 50.0066 -6.7629 284° West 452 520 32,500 3,060 Level FlightAware UK
08:04AM 50.0110 -6.7910 284° West 464 534 34,000  Climbing FlightAware
08:04AM 50.0220 -6.8599 284° West 452 520 32,500 -2,460 Descending FlightAware UK
08:04AM 50.0311 -6.9180 284° West 452 520 32,500 4,260 Level FlightAware UK
08:04AM 50.0320 -6.9190 284° West 464 534 34,000  Climbing FlightAware
08:05AM 50.0402 -6.9762 284° West 454 522 32,500 -2,760 Descending FlightAware UK
08:05AM 50.0492 -7.0338 284° West 452 520 32,500 3,600 Level FlightAware UK
08:05AM 50.0520 -7.0470 284° West 464 534 34,000  Climbing FlightAware
08:05AM 50.0612 -7.1114 284° West 452 520 32,500 -2,580 Descending FlightAware UK
08:06AM 50.0704 -7.1696 284° West 452 520 32,500 3,180 Level FlightAware UK
08:06AM 50.0740 -7.1930 284° West 464 534 34,000  Climbing FlightAware
08:06AM 50.0856 -7.2668 284° West 454 522 32,500 -2,400 Descending FlightAware UK
08:07AM 50.0946 -7.3252 284° West 454 522 32,500 4,500 Level FlightAware UK
08:07AM 50.0940 -7.3230 284° West 464 534 34,000  Climbing FlightAware
08:07AM 50.1035 -7.3837 284° West 454 522 32,500 -2,700 Descending FlightAware UK
08:07AM 50.1124 -7.4422 283° West 456 525 32,500 3,060 Level FlightAware UK
08:07AM 50.1170 -7.4740 283° West 465 535 34,000  Climbing FlightAware
08:08AM 50.1272 -7.5398 283° West 456 525 32,500 -2,460 Descending FlightAware UK
08:08AM 50.1361 -7.5985 283° West 454 522 32,500 4,260 Level FlightAware UK
08:08AM 50.1370 -7.6020 283° West 465 535 34,000  Climbing FlightAware
08:08AM 50.1449 -7.6571 283° West 454 522 32,500 -2,760 Descending FlightAware UK
08:09AM 50.1539 -7.7157 283° West 454 522 32,500 3,000 Level FlightAware UK
08:09AM 50.1590 -7.7490 283° West 465 535 34,000  Climbing FlightAware
08:09AM 50.1685 -7.8136 283° West 454 522 32,500 -2,520 Descending FlightAware UK
08:09AM 50.1772 -7.8723 283° West 454 522 32,500 4,080 Level FlightAware UK
08:09AM 50.1780 -7.8770 283° West 465 535 34,000  Climbing FlightAware
08:10AM 50.1886 -7.9506 283° West 454 522 32,500 -2,400 Descending FlightAware UK
08:10AM 50.1973 -8.0093 283° West 454 522 32,500 4,500 Level FlightAware UK
08:10AM 50.1980 -8.0130 283° West 465 535 34,000  Climbing FlightAware
08:10AM 50.2060 -8.0681 283° West 454 522 32,500 -2,700 Descending FlightAware UK
08:11AM 50.2146 -8.1269 283° West 454 522 32,500 3,060 Level FlightAware UK
08:11AM 50.2190 -8.1580 283° West 465 535 34,000  Climbing FlightAware
08:11AM 50.2289 -8.2242 283° West 452 520 32,500 -2,460 Descending FlightAware UK
08:11AM 50.2374 -8.2830 283° West 452 520 32,500 4,260 Level FlightAware UK
08:11AM 50.2380 -8.2880 283° West 465 535 34,000  Climbing FlightAware
08:12AM 50.2458 -8.3418 283° West 452 520 32,500 -2,760 Descending FlightAware UK
08:12AM 50.2542 -8.4007 283° West 452 520 32,500 3,600 Level FlightAware UK
08:12AM 50.2570 -8.4190 283° West 465 535 34,000  Climbing FlightAware
08:12AM 50.2653 -8.4792 283° West 452 520 32,500 -2,580 Descending FlightAware UK
08:13AM 50.2737 -8.5381 283° West 452 520 32,500 3,180 Level FlightAware UK
08:13AM 50.2780 -8.5640 283° West 465 535 34,000  Climbing FlightAware
08:13AM 50.2877 -8.6363 283° West 454 522 32,500 -2,400 Descending FlightAware UK
08:14AM 50.2959 -8.6952 282° West 454 522 32,500 4,500 Level FlightAware UK
08:14AM 50.2960 -8.6950 282° West 465 535 34,000  Climbing FlightAware
08:14AM 50.3044 -8.7541 282° West 452 520 32,500 -2,700 Descending FlightAware UK
08:14AM 50.3127 -8.8131 282° West 452 520 32,500 3,060 Level FlightAware UK
08:14AM 50.3170 -8.8450 282° West 465 535 34,000  Climbing FlightAware
08:15AM 50.3263 -8.9116 282° West 454 522 32,500 -2,460 Descending FlightAware UK
08:15AM 50.3344 -8.9707 282° West 454 522 32,500 4,260 Level FlightAware UK
08:15AM 50.3350 -8.9750 282° West 465 535 34,000 2,040 Climbing FlightAware
08:16AM 50.3530 -9.1060 282° West 466 536 34,000  Level FlightAware
08:16AM 50.3730 -9.2530 282° West 466 536 34,000  Level FlightAware
08:17AM 50.3910 -9.3840 282° West 466 536 34,000  Level FlightAware
08:18AM 50.4090 -9.5180 282° West 467 537 34,000  Level FlightAware
08:18AM 50.4290 -9.6670 282° West 468 539 34,000  Level FlightAware
08:19AM 50.4500 -9.8300 281° West 34,000  Level FlightAware
08:20AM 50.4690 -9.9740 282° West 467 537 34,000  Level FlightAware
08:21AM 50.4830 -10.0990 280° West 467 537 34,000  Level FlightAware
08:21AM 50.5040 -10.2510 282° West 469 540 34,000  Level FlightAware
08:22AM 50.5180 -10.3650 281° West 469 540 34,000  Level FlightAware
08:23AM 50.5450 -10.5880 281° West 468 539 34,000  Level FlightAware
08:24AM 50.5580 -10.7020 280° West 468 539 34,000  Level FlightAware
08:24AM 50.5800 -10.8670 282° West 466 536 34,000  Level FlightAware
08:25AM 50.5970 -11.0120 281° West 465 535 34,000  Level FlightAware
08:26AM 50.6170 -11.1860 280° West 464 534 34,000  Level FlightAware
08:27AM 50.6300 -11.2990 280° West 464 534 34,000  Level FlightAware
08:27AM 50.6430 -11.4120 280° West 464 534 34,000  Level FlightAware
08:28AM 50.6580 -11.5540 280° West 464 534 34,000  Level FlightAware
08:29AM 50.6710 -11.6670 280° West 464 534 34,000  Level FlightAware
08:30AM 50.6840 -11.7810 280° West 464 534 34,000  Level FlightAware
08:30AM 50.6960 -11.8940 280° West 464 534 34,000  Level FlightAware
08:31AM 50.7090 -12.0080 280° West 464 534 34,000  Level FlightAware
08:32AM 50.7220 -12.1210 280° West 464 534 34,000  Level FlightAware
08:32AM 50.7370 -12.2630 280° West 464 534 34,000  Level FlightAware
08:33AM 50.7500 -12.3770 280° West 464 534 34,000  Level FlightAware
08:34AM 50.7630 -12.4900 280° West 464 534 34,000  Level FlightAware
08:34AM 50.7750 -12.6040 279° West 464 534 34,000  Level FlightAware
08:35AM 50.7880 -12.7180 280° West 464 534 34,000  Level FlightAware
08:38AM 50.8722 -13.1589 287° West  Level Estimated
08:39AM 50.9070 -13.3443 287° West  Level Estimated
08:40AM 50.9415 -13.5301 287° West  Level Estimated
08:41AM 50.9757 -13.7161 286° West  Level Estimated
08:42AM 51.0097 -13.9024 286° West  Level Estimated
08:43AM 51.0433 -14.0889 286° West  Level Estimated
08:44AM 51.0766 -14.2757 286° West  Level Estimated
08:45AM 51.1097 -14.4628 286° West  Level Estimated
08:46AM 51.1424 -14.6502 286° West  Level Estimated
08:47AM 51.1749 -14.8378 285° West  Level Estimated
08:48AM 51.2069 -15.0253 285° West  Level Estimated
08:49AM 51.2387 -15.2130 285° West  Level Estimated
08:50AM 51.2702 -15.4010 285° West  Level Estimated
08:51AM 51.3013 -15.5892 285° West  Level Estimated
08:52AM 51.3322 -15.7777 285° West  Level Estimated
08:53AM 51.3628 -15.9664 285° West  Level Estimated
08:54AM 51.3930 -16.1554 284° West  Level Estimated
08:55AM 51.4230 -16.3446 284° West  Level Estimated
08:56AM 51.4526 -16.5341 284° West  Level Estimated
08:57AM 51.4831 -16.7312 284° West  Level Estimated
08:58AM 51.5132 -16.9286 284° West  Level Estimated
08:59AM 51.5430 -17.1262 284° West  Level Estimated
09:00AM 51.5725 -17.3241 284° West  Level Estimated
09:01AM 51.6017 -17.5222 283° West  Level Estimated
09:02AM 51.6305 -17.7206 283° West  Level Estimated
09:03AM 51.6590 -17.9192 283° West  Level Estimated
09:04AM 51.6871 -18.1181 283° West  Level Estimated
09:05AM 51.7149 -18.3172 283° West  Level Estimated
09:06AM 51.7424 -18.5166 283° West  Level Estimated
09:07AM 51.7695 -18.7162 282° West  Level Estimated
09:08AM 51.7963 -18.9160 282° West  Level Estimated
09:09AM 51.8228 -19.1161 282° West  Level Estimated
09:10AM 51.8489 -19.3165 282° West  Level Estimated
09:11AM 51.8746 -19.5170 282° West  Level Estimated
09:12AM 51.9001 -19.7178 282° West  Level Estimated
09:13AM 51.9252 -19.9188 282° West  Level Estimated
09:14AM 51.9499 -20.1200 281° West  Level Estimated
09:14AM 50.0000 -20.0000 274° West 462 532 35,000  Level ETMS Enhanced Traffic Management System
09:15AM 51.9743 -20.3215 281° West  Level Estimated
09:16AM 51.9984 -20.5231 281° West  Level Estimated
09:17AM 52.0221 -20.7250 281° West  Level Estimated
09:18AM 52.0454 -20.9271 281° West  Level Estimated
09:19AM 52.0685 -21.1294 281° West  Level Estimated
09:20AM 50.0634 -21.7972 272° West 462 532 35,000  Level FlightAware Transoceanic
09:21AM 50.0688 -21.9971 272° West 462 532 35,000  Level FlightAware Transoceanic
09:22AM 50.0738 -22.1971 272° West 462 532 35,000  Level FlightAware Transoceanic
09:23AM 50.0784 -22.3972 272° West 462 532 35,000  Level FlightAware Transoceanic
09:24AM 50.0827 -22.5972 272° West 462 532 35,000  Level FlightAware Transoceanic
09:25AM 50.0867 -22.7973 272° West 462 532 35,000  Level FlightAware Transoceanic
09:26AM 50.0903 -22.9975 272° West 462 532 35,000  Level FlightAware Transoceanic
09:27AM 50.0936 -23.1977 271° West 462 532 35,000  Level FlightAware Transoceanic
09:28AM 50.0965 -23.3979 271° West 462 532 35,000  Level FlightAware Transoceanic
09:29AM 50.0991 -23.5981 271° West 462 532 35,000  Level FlightAware Transoceanic
09:30AM 50.1013 -23.7983 271° West 462 532 35,000  Level FlightAware Transoceanic
09:31AM 50.1032 -23.9986 271° West 462 532 35,000  Level FlightAware Transoceanic
09:32AM 50.1048 -24.1988 271° West 462 532 35,000  Level FlightAware Transoceanic
09:33AM 50.1060 -24.3991 270° West 462 532 35,000  Level FlightAware Transoceanic
09:34AM 50.1068 -24.5994 270° West 462 532 35,000  Level FlightAware Transoceanic
09:35AM 50.1073 -24.7997 270° West 462 532 35,000  Level FlightAware Transoceanic
09:36AM 50.1075 -25.0000 270° West 462 532 35,000  Level FlightAware Transoceanic
09:37AM 50.1073 -25.2003 270° West 462 532 35,000  Level FlightAware Transoceanic
09:38AM 50.1068 -25.4006 270° West 462 532 35,000  Level FlightAware Transoceanic
09:39AM 50.1060 -25.6009 270° West 462 532 35,000  Level FlightAware Transoceanic
09:40AM 50.1048 -25.8012 269° West 462 532 35,000  Level FlightAware Transoceanic
09:41AM 50.1032 -26.0014 269° West 462 532 35,000  Level FlightAware Transoceanic
09:42AM 50.1013 -26.2017 269° West 462 532 35,000  Level FlightAware Transoceanic
09:43AM 50.0991 -26.4019 269° West 462 532 35,000  Level FlightAware Transoceanic
09:44AM 50.0965 -26.6021 269° West 462 532 35,000  Level FlightAware Transoceanic
09:45AM 50.0936 -26.8023 269° West 462 532 35,000  Level FlightAware Transoceanic
09:46AM 50.0903 -27.0025 268° West 462 532 35,000  Level FlightAware Transoceanic
09:47AM 50.0867 -27.2027 268° West 462 532 35,000  Level FlightAware Transoceanic
09:48AM 50.0827 -27.4028 268° West 462 532 35,000  Level FlightAware Transoceanic
09:49AM 50.0784 -27.6028 268° West 462 532 35,000  Level FlightAware Transoceanic
09:50AM 50.0738 -27.8029 268° West 462 532 35,000  Level FlightAware Transoceanic
09:51AM 50.0688 -28.0029 268° West 462 532 35,000  Level FlightAware Transoceanic
09:52AM 50.0634 -28.2028 268° West 462 532 35,000  Level FlightAware Transoceanic
09:53AM 50.0578 -28.4027 267° West 462 532 35,000  Level FlightAware Transoceanic
09:54AM 50.0518 -28.6026 267° West 462 532 35,000  Level FlightAware Transoceanic
09:55AM 50.0454 -28.8024 267° West 462 532 35,000  Level FlightAware Transoceanic
09:56AM 50.0387 -29.0021 267° West 462 532 35,000  Level FlightAware Transoceanic
09:57AM 50.0316 -29.2019 267° West 462 532 35,000  Level FlightAware Transoceanic
09:58AM 50.0242 -29.4015 267° West 462 532 35,000  Level FlightAware Transoceanic
09:59AM 50.0165 -29.6010 266° West 462 532 35,000  Level FlightAware Transoceanic
10:00AM 50.0084 -29.8006 266° West 462 532 35,000  Level FlightAware Transoceanic
10:01AM 50.0001 -29.9970 266° West  Level FlightAware Approximate
10:02AM 49.9916 -30.1933 266° West  Level FlightAware Approximate
10:02AM 50.0000 -30.0000 257° West 483 556 35,000  Level ETMS Enhanced Traffic Management System
10:03AM 49.9720 -30.1856 257° West  Level FlightAware Approximate
10:04AM 49.9428 -30.3769 257° West  Level FlightAware Approximate
10:05AM 49.9135 -30.5664 257° West  Level FlightAware Approximate
10:06AM 49.8839 -30.7556 256° West  Level FlightAware Approximate
10:07AM 49.8541 -30.9445 256° West  Level FlightAware Approximate
10:08AM 49.7776 -31.4185 256° West 483 556 35,000  Level FlightAware Transoceanic
10:09AM 49.7444 -31.6200 256° West 483 556 35,000  Level FlightAware Transoceanic
10:10AM 49.7109 -31.8213 255° West 483 556 35,000  Level FlightAware Transoceanic
10:11AM 49.6770 -32.0223 255° West 483 556 35,000  Level FlightAware Transoceanic
10:12AM 49.6428 -32.2230 255° West 483 556 35,000  Level FlightAware Transoceanic
10:13AM 49.6082 -32.4235 255° West 483 556 35,000  Level FlightAware Transoceanic
10:14AM 49.5733 -32.6236 255° West 483 556 35,000  Level FlightAware Transoceanic
10:15AM 49.5381 -32.8235 255° West 483 556 35,000  Level FlightAware Transoceanic
10:16AM 49.5024 -33.0231 255° West 483 556 35,000  Level FlightAware Transoceanic
10:17AM 49.4665 -33.2224 254° West 483 556 35,000  Level FlightAware Transoceanic
10:18AM 49.4302 -33.4214 254° West 483 556 35,000  Level FlightAware Transoceanic
10:19AM 49.3936 -33.6200 254° West 483 556 35,000  Level FlightAware Transoceanic
10:20AM 49.3566 -33.8185 254° West 483 556 35,000  Level FlightAware Transoceanic
10:21AM 49.3193 -34.0165 254° West 483 556 35,000  Level FlightAware Transoceanic
10:22AM 49.2817 -34.2144 254° West 483 556 35,000  Level FlightAware Transoceanic
10:23AM 49.2437 -34.4118 254° West 483 556 35,000  Level FlightAware Transoceanic
10:24AM 49.2053 -34.6090 253° West 483 556 35,000  Level FlightAware Transoceanic
10:25AM 49.1667 -34.8059 253° West 483 556 35,000  Level FlightAware Transoceanic
10:26AM 49.1277 -35.0025 253° West 483 556 35,000  Level FlightAware Transoceanic
10:27AM 49.0884 -35.1987 253° West 483 556 35,000  Level FlightAware Transoceanic
10:28AM 49.0487 -35.3947 253° West 483 556 35,000  Level FlightAware Transoceanic
10:29AM 49.0087 -35.5903 253° West 483 556 35,000  Level FlightAware Transoceanic
10:30AM 48.9684 -35.7857 252° West 483 556 35,000  Level FlightAware Transoceanic
10:31AM 48.9278 -35.9807 252° West 483 556 35,000  Level FlightAware Transoceanic
10:32AM 48.8868 -36.1754 252° West 483 556 35,000  Level FlightAware Transoceanic
10:33AM 48.8455 -36.3697 252° West 483 556 35,000  Level FlightAware Transoceanic
10:34AM 48.8039 -36.5638 252° West 483 556 35,000  Level FlightAware Transoceanic
10:35AM 48.7619 -36.7575 252° West 483 556 35,000  Level FlightAware Transoceanic
10:36AM 48.7197 -36.9509 252° West 483 556 35,000  Level FlightAware Transoceanic
10:37AM 48.6771 -37.1440 251° West 483 556 35,000  Level FlightAware Transoceanic
10:38AM 48.6341 -37.3367 251° West 483 556 35,000  Level FlightAware Transoceanic
10:39AM 48.5909 -37.5291 251° West 483 556 35,000  Level FlightAware Transoceanic
10:40AM 48.5473 -37.7212 251° West 483 556 35,000  Level FlightAware Transoceanic
10:41AM 48.5034 -37.9130 251° West 483 556 35,000  Level FlightAware Transoceanic
10:42AM 48.4593 -38.1044 251° West 483 556 35,000  Level FlightAware Transoceanic
10:43AM 48.4147 -38.2955 251° West 483 556 35,000  Level FlightAware Transoceanic
10:44AM 48.3699 -38.4862 250° West 483 556 35,000  Level FlightAware Transoceanic
10:45AM 48.3247 -38.6766 250° West 483 556 35,000  Level FlightAware Transoceanic
10:46AM 48.2793 -38.8667 250° West 483 556 35,000  Level FlightAware Transoceanic
10:47AM 48.2335 -39.0564 250° West 483 556 35,000  Level FlightAware Transoceanic
10:48AM 48.1874 -39.2458 250° West 483 556 35,000  Level FlightAware Transoceanic
10:49AM 48.1410 -39.4349 250° West 483 556 35,000  Level FlightAware Transoceanic
10:50AM 48.0943 -39.6236 250° West 483 556 35,000  Level FlightAware Transoceanic
10:51AM 48.0473 -39.8120 249° West 483 556 35,000  Level FlightAware Transoceanic
10:52AM 48.0032 -39.9875 249° West  Level FlightAware Approximate
10:53AM 47.9587 -40.1626 249° West  Level FlightAware Approximate
10:54AM 47.9754 -40.1563 257° West  Level FlightAware Approximate
10:54AM 48.0000 -40.0000 257° West 491 565 35,000  Level ETMS Enhanced Traffic Management System
10:55AM 47.9465 -40.3386 257° West  Level FlightAware Approximate
10:56AM 47.9173 -40.5206 257° West  Level FlightAware Approximate
10:57AM 47.8878 -40.7024 256° West  Level FlightAware Approximate
10:58AM 47.8580 -40.8840 256° West  Level FlightAware Approximate
10:59AM 47.8280 -41.0653 256° West  Level FlightAware Approximate
11:00AM 47.7824 -41.3882 256° West 491 565 35,000  Level FlightAware Transoceanic
11:01AM 47.7499 -41.5856 256° West 491 565 35,000  Level FlightAware Transoceanic
11:02AM 47.7172 -41.7827 256° West 491 565 35,000  Level FlightAware Transoceanic
11:03AM 47.6840 -41.9795 256° West 491 565 35,000  Level FlightAware Transoceanic
11:04AM 47.6506 -42.1761 256° West 491 565 35,000  Level FlightAware Transoceanic
11:05AM 47.6168 -42.3725 256° West 491 565 35,000  Level FlightAware Transoceanic
11:06AM 47.5826 -42.5686 255° West 491 565 35,000  Level FlightAware Transoceanic
11:07AM 47.5482 -42.7644 255° West 491 565 35,000  Level FlightAware Transoceanic
11:08AM 47.5134 -42.9600 255° West 491 565 35,000  Level FlightAware Transoceanic
11:09AM 47.4783 -43.1553 255° West 491 565 35,000  Level FlightAware Transoceanic
11:10AM 47.4428 -43.3504 255° West 491 565 35,000  Level FlightAware Transoceanic
11:11AM 47.4070 -43.5452 255° West 491 565 35,000  Level FlightAware Transoceanic
11:12AM 47.3709 -43.7397 255° West 491 565 35,000  Level FlightAware Transoceanic
11:13AM 47.3344 -43.9340 254° West 491 565 35,000  Level FlightAware Transoceanic
11:14AM 47.2977 -44.1280 254° West 491 565 35,000  Level FlightAware Transoceanic
11:15AM 47.2606 -44.3217 254° West 491 565 35,000  Level FlightAware Transoceanic
11:16AM 47.2231 -44.5151 254° West 491 565 35,000  Level FlightAware Transoceanic
11:17AM 47.1854 -44.7083 254° West 491 565 35,000  Level FlightAware Transoceanic
11:18AM 47.1473 -44.9012 254° West 491 565 35,000  Level FlightAware Transoceanic
11:19AM 47.1089 -45.0938 254° West 491 565 35,000  Level FlightAware Transoceanic
11:20AM 47.0702 -45.2862 253° West 491 565 35,000  Level FlightAware Transoceanic
11:21AM 47.0311 -45.4782 253° West 491 565 35,000  Level FlightAware Transoceanic
11:22AM 46.9918 -45.6700 253° West 491 565 35,000  Level FlightAware Transoceanic
11:23AM 46.9521 -45.8615 253° West 491 565 35,000  Level FlightAware Transoceanic
11:24AM 46.9121 -46.0527 253° West 491 565 35,000  Level FlightAware Transoceanic
11:25AM 46.8717 -46.2436 253° West 491 565 35,000  Level FlightAware Transoceanic
11:26AM 46.8311 -46.4343 253° West 491 565 35,000  Level FlightAware Transoceanic
11:27AM 46.7902 -46.6246 252° West 491 565 35,000  Level FlightAware Transoceanic
11:28AM 46.7489 -46.8147 252° West 491 565 35,000  Level FlightAware Transoceanic
11:29AM 46.7073 -47.0045 252° West 491 565 35,000  Level FlightAware Transoceanic
11:30AM 46.6654 -47.1939 252° West 491 565 35,000  Level FlightAware Transoceanic
11:31AM 46.6232 -47.3831 252° West 491 565 35,000  Level FlightAware Transoceanic
11:32AM 46.5807 -47.5720 252° West 491 565 35,000  Level FlightAware Transoceanic
11:33AM 46.5378 -47.7606 252° West 491 565 35,000  Level FlightAware Transoceanic
11:34AM 46.4947 -47.9489 252° West 491 565 35,000  Level FlightAware Transoceanic
11:35AM 46.4512 -48.1368 251° West 491 565 35,000  Level FlightAware Transoceanic
11:36AM 46.4075 -48.3245 251° West 491 565 35,000  Level FlightAware Transoceanic
11:37AM 46.3634 -48.5119 251° West 491 565 35,000  Level FlightAware Transoceanic
11:38AM 46.3191 -48.6990 251° West 491 565 35,000  Level FlightAware Transoceanic
11:39AM 46.2744 -48.8858 251° West 491 565 35,000  Level FlightAware Transoceanic
11:40AM 46.2294 -49.0723 251° West 491 565 35,000  Level FlightAware Transoceanic
11:41AM 46.1841 -49.2584 251° West 491 565 35,000  Level FlightAware Transoceanic
11:42AM 46.1385 -49.4443 250° West 491 565 35,000  Level FlightAware Transoceanic
11:43AM 46.0927 -49.6298 250° West 491 565 35,000  Level FlightAware Transoceanic
11:44AM 46.0465 -49.8151 250° West 491 565 35,000  Level FlightAware Transoceanic
11:45AM 46.0001 -49.9829 248° West  Level FlightAware Approximate
11:46AM 45.9530 -50.1501 248° West  Level FlightAware Approximate
11:47AM 46.0000 -50.0000 257° West 428 493 35,000  Level ETMS Enhanced Traffic Management System
11:47AM 45.9767 -50.1435 257° West  Level FlightAware Approximate
11:47AM 45.9500 -50.3500 257° West 480 552 35,000  Level Gander Center
11:48AM 45.9479 -50.3191 257° West  Level FlightAware Approximate
11:48AM 45.9167 -50.5167 254° West 480 552 35,000  Level Gander Center
11:49AM 45.9188 -50.4944 257° West  Level FlightAware Approximate
11:49AM 45.9167 -50.7167 270° West 470 541 35,000  Level Gander Center
11:50AM 45.8897 -50.6681 257° West  Level FlightAware Approximate
11:50AM 45.9167 -50.8833 270° West 470 541 35,000  Level Gander Center
11:51AM 45.8604 -50.8416 256° West  Level FlightAware Approximate
11:51AM 45.9333 -51.0000 282° West 470 541 35,000  Level Gander Center
11:52AM 45.8309 -51.0150 257° West  Level FlightAware Approximate
11:52AM 45.9500 -51.1833 278° West 470 541 35,000  Level Gander Center
11:53AM 45.8265 -51.0426 257° West  Level FlightAware Approximate
11:53AM 45.9667 -51.4500 275° West 470 541 35,000  Level Gander Center
11:59AM 46.0720 -52.5600 275° West 471 542 35,000  Level FlightAware
12:00PM 46.0830 -52.7270 275° West 471 542 35,000  Level FlightAware
12:01PM 46.0900 -52.8330 275° West 471 542 35,000  Level FlightAware
12:01PM 46.1020 -52.9870 276° West 474 545 35,000  Level FlightAware
12:02PM 46.1130 -53.1500 276° West 474 545 35,000  Level FlightAware
12:03PM 46.1240 -53.3050 276° West 475 547 35,000  Level FlightAware
12:04PM 46.1320 -53.4410 275° West 476 548 35,000  Level FlightAware
12:04PM 46.1410 -53.5690 276° West 476 548 35,000  Level FlightAware
12:05PM 46.1470 -53.6720 275° West 475 547 35,000  Level FlightAware
12:06PM 46.1580 -53.8400 275° West 474 545 35,000  Level FlightAware
12:07PM 46.1660 -53.9770 275° West 473 544 35,000  Level FlightAware
12:07PM 46.1730 -54.1020 275° West 472 543 35,000  Level FlightAware
12:08PM 46.1810 -54.2300 275° West 472 543 35,000  Level FlightAware
12:09PM 46.1870 -54.3320 275° West 471 542 35,000  Level FlightAware
12:09PM 46.1960 -54.4950 275° West 470 541 35,000  Level FlightAware
12:10PM 46.2030 -54.6270 274° West 468 539 35,000  Level FlightAware
12:11PM 46.2090 -54.7450 274° West 468 539 35,000  Level FlightAware
12:11PM 46.2140 -54.8510 274° West 468 539 35,000  Level FlightAware
12:12PM 46.2210 -54.9810 274° West 469 540 35,000  Level FlightAware
12:13PM 46.2290 -55.1250 275° West 469 540 35,000  Level FlightAware
12:14PM 46.2360 -55.2790 274° West 470 541 35,000  Level FlightAware
12:14PM 46.2420 -55.4040 274° West 470 541 35,000  Level FlightAware
12:15PM 46.2470 -55.5120 274° West 470 541 35,000  Level FlightAware
12:16PM 46.2540 -55.6640 274° West 471 542 35,000  Level FlightAware
12:16PM 46.2600 -55.7960 274° West 470 541 35,000  Level FlightAware
12:17PM 46.2660 -55.9260 274° West 470 541 35,000  Level FlightAware
12:18PM 46.2710 -56.0550 273° West 470 541 35,000  Level FlightAware
12:18PM 46.2760 -56.1710 274° West 470 541 35,000  Level FlightAware
12:19PM 46.2820 -56.3260 273° West 469 540 35,000  Level FlightAware
12:20PM 46.2870 -56.4460 273° West 470 541 35,000  Level FlightAware
12:21PM 46.2930 -56.6040 273° West 470 541 35,000  Level FlightAware
12:21PM 46.2970 -56.7240 273° West 470 541 35,000  Level FlightAware
12:22PM 46.3020 -56.8530 273° West 470 541 35,000  Level FlightAware
12:23PM 46.3060 -56.9830 273° West 470 541 35,000  Level FlightAware
12:23PM 46.3080 -57.0880 272° West 470 541 35,000  Level FlightAware
12:24PM 46.3110 -57.1950 272° West 470 541 35,000  Level FlightAware
12:25PM 46.3140 -57.3280 272° West 470 541 35,000  Level FlightAware
12:25PM 46.3170 -57.4350 272° West 470 541 35,000  Level FlightAware
12:26PM 46.3190 -57.5420 272° West 470 541 35,000  Level FlightAware
12:27PM 46.3220 -57.6490 272° West 470 541 35,000  Level FlightAware
12:28PM 46.3250 -57.7830 272° West 470 541 35,000  Level FlightAware
12:28PM 46.3280 -57.8900 272° West 470 541 35,000  Level FlightAware
12:29PM 46.3390 -58.1680 273° West 471 542 35,000  Level FlightAware
12:30PM 46.3420 -58.3110 272° West 472 543 35,000  Level FlightAware
12:30PM 46.3450 -58.4320 272° West 472 543 35,000  Level FlightAware
12:31PM 46.3480 -58.5760 272° West 472 543 35,000  Level FlightAware
12:32PM 46.3500 -58.7030 271° West 472 543 35,000  Level FlightAware
12:32PM 46.3530 -58.8280 272° West 473 544 35,000  Level FlightAware
12:33PM 46.3550 -58.9750 271° West 472 543 35,000  Level FlightAware
12:34PM 46.3570 -59.0990 271° West 472 543 35,000  Level FlightAware
12:35PM 46.3590 -59.2400 271° West 473 544 35,000  Level FlightAware
12:35PM 46.3600 -59.3660 271° West 472 543 35,000  Level FlightAware
12:36PM 46.3620 -59.4910 271° West 472 543 35,000  Level FlightAware
12:37PM 46.3640 -59.6370 271° West 471 542 35,000  Level FlightAware
12:37PM 46.3650 -59.7760 271° West 471 542 35,000  Level FlightAware
12:38PM 46.3660 -59.8990 271° West 470 541 35,000  Level FlightAware
12:39PM 46.3670 -60.0250 271° West 469 540 35,000  Level FlightAware
12:40PM 46.3680 -60.1690 271° West 468 539 35,000  Level FlightAware
12:40PM 46.3680 -60.2890 270° West 468 539 35,000 60 Level FlightAware
12:41PM 46.3690 -60.4140 271° West 467 537 35,100 420 Climbing FlightAware
12:42PM 46.3690 -60.5580 270° West 470 541 35,600 600 Climbing FlightAware
12:42PM 46.3690 -60.6850 270° West 474 545 36,000 240 Climbing FlightAware
12:43PM 46.3690 -60.8220 270° West 474 545 36,000  Level FlightAware
12:44PM 46.3690 -60.9180 270° West 468 539 36,000  Level FlightAware
12:44PM 46.3690 -61.0710 270° West 464 534 36,000  Level FlightAware
12:45PM 46.3690 -61.2170 270° West 465 535 36,000  Level FlightAware
12:46PM 46.3680 -61.3430 269° West 465 535 36,000  Level FlightAware
12:47PM 46.3670 -61.4770 269° West 465 535 36,000  Level FlightAware
12:47PM 46.3660 -61.6010 269° West 465 535 36,000  Level FlightAware
12:48PM 46.3650 -61.7440 269° West 466 536 36,000  Level FlightAware
12:49PM 46.3650 -61.8490 270° West 466 536 36,000  Level FlightAware
12:49PM 46.3630 -61.9920 269° West 465 535 36,000  Level FlightAware
12:50PM 46.3620 -62.1310 269° West 465 535 36,000  Level FlightAware
12:51PM 46.3600 -62.2400 269° West 465 535 36,000  Level FlightAware
12:51PM 46.3570 -62.3620 268° West 465 535 36,000  Level FlightAware
12:52PM 46.3550 -62.4680 268° West 465 535 36,000  Level FlightAware
12:53PM 46.3520 -62.5740 268° West 465 535 36,000  Level FlightAware
12:54PM 46.3490 -62.7060 268° West 465 535 36,000  Level FlightAware
12:54PM 46.3460 -62.8120 268° West 465 535 36,000  Level FlightAware
12:55PM 46.3440 -62.9180 268° West 465 535 36,000  Level FlightAware
12:56PM 46.3410 -63.0240 268° West 465 535 36,000  Level FlightAware
12:56PM 46.3390 -63.1300 268° West 465 535 36,000  Level FlightAware
12:57PM 46.3350 -63.2620 268° West 465 535 36,000  Level FlightAware
12:58PM 46.3330 -63.3680 268° West 465 535 36,000  Level FlightAware
12:58PM 46.3300 -63.4740 268° West 465 535 36,000  Level FlightAware
12:59PM 46.3280 -63.5800 268° West 465 535 36,000  Level FlightAware
01:00PM 46.3250 -63.6860 268° West 465 535 36,000  Level FlightAware
01:00PM 46.3230 -63.7920 268° West 465 535 36,000  Level FlightAware
01:06PM 46.2920 -65.0110 268° West 466 536 36,000  Level FlightAware
01:06PM 46.2850 -65.1570 266° West 466 536 36,000  Level FlightAware
01:07PM 46.2800 -65.2630 266° West 466 536 36,000  Level FlightAware
01:08PM 46.2760 -65.4210 268° West 466 536 36,000  Level FlightAware
01:08PM 46.2700 -65.5330 266° West 466 536 36,000  Level FlightAware
01:09PM 46.2650 -65.6720 267° West 467 537 36,000  Level FlightAware
01:10PM 46.2590 -65.8030 266° West 467 537 36,000  Level FlightAware
01:11PM 46.2530 -65.9310 266° West 467 537 36,000  Level FlightAware
01:11PM 46.2460 -66.0950 267° West 468 539 36,000  Level FlightAware
01:12PM 46.2410 -66.2160 267° West 468 539 36,000  Level FlightAware
01:13PM 46.2330 -66.3740 266° West 467 537 36,000  Level FlightAware
01:14PM 46.2270 -66.4980 266° West 468 539 36,000  Level FlightAware
01:14PM 46.2180 -66.6690 266° West 468 539 36,000  Level FlightAware
01:15PM 46.2100 -66.7990 265° West 468 539 36,000  Level FlightAware
01:16PM 46.2040 -66.9050 265° West 468 539 36,000  Level FlightAware
01:17PM 46.1980 -67.0560 267° West 470 541 36,000  Level FlightAware
01:17PM 46.1900 -67.1860 265° West 470 541 36,000  Level FlightAware
01:18PM 46.1810 -67.3460 265° West 474 545 36,000  Level FlightAware
01:19PM 46.1740 -67.4750 266° West 476 548 36,000  Level FlightAware
01:19PM 46.1500 -67.5333 266° West 470 541 36,000  Level Moncton Center
01:20PM 46.1594 -67.7244 274° West 485 558 36,000 -60 Level Boston Center
01:21PM 46.1481 -67.9142 265° West 484 557 35,900  Descending Boston Center
01:22PM 46.1361 -68.0919 265° West 489 563 36,000  Climbing Boston Center
01:23PM 46.1244 -68.2875 265° West 489 563 36,000  Level Boston Center
01:24PM 46.1064 -68.4894 263° West 484 557 36,000  Level Boston Center
01:25PM 46.0942 -68.6847 265° West 484 557 36,000 -60 Level Boston Center
01:26PM 46.0794 -68.8744 264° West 484 557 35,900 -60 Descending Boston Center
01:27PM 46.0661 -69.0606 264° West 484 557 35,900  Level Boston Center
01:28PM 46.0528 -69.2497 264° West 478 550 35,900  Level Boston Center
01:29PM 46.0369 -69.4392 263° West 478 550 36,000  Climbing Boston Center
01:30PM 46.0264 -69.6069 265° West 478 550 36,000  Level Boston Center
01:31PM 46.0122 -69.7931 264° West 478 550 36,000  Level Boston Center
01:32PM 45.9994 -69.9789 264° West 478 550 36,000  Level Boston Center
01:33PM 45.9825 -70.1617 262° West 478 550 36,000  Level Boston Center
01:34PM 45.9667 -70.3000 261° West 460 529 36,000  Level Montreal Center
01:35PM 45.9333 -70.5000 257° West 470 541 36,000  Level Montreal Center
01:36PM 45.9333 -70.6833 270° West 470 541 36,000  Level Montreal Center
01:37PM 45.9000 -70.8667 255° West 460 529 36,000 -900 Level Montreal Center
01:38PM 45.9000 -71.0500 270° West 460 529 34,200 -2,220 Descending Montreal Center
01:39PM 45.8667 -71.2167 254° West 460 529 31,600 -2,340 Descending Montreal Center
01:40PM 45.8667 -71.4000 270° West 460 529 29,600 -2,100 Descending Montreal Center
01:41PM 45.8500 -71.5833 263° West 440 506 27,400 -2,100 Descending Montreal Center
01:42PM 45.8333 -71.7500 262° West 430 495 25,400 -2,040 Descending Montreal Center
01:48PM 45.7540 -72.6840 262° West 368 423 13,500 -2,040 Descending FlightAware
01:48PM 45.7440 -72.7790 261° West 360 414 12,200 -1,920 Descending FlightAware
01:49PM 45.7340 -72.8740 261° West 353 406 11,000 -1,560 Descending FlightAware
01:50PM 45.7240 -72.9770 262° West 330 380 10,000 -1,080 Descending FlightAware
01:50PM 45.7180 -73.0280 260° West 310 357 9,800 -360 Descending FlightAware
01:51PM 45.7120 -73.0850 261° West 285 328 9,700 -480 Descending FlightAware
01:51PM 45.7040 -73.1310 256° West 269 310 9,400 -900 Descending FlightAware
01:51PM 45.7000 -73.1550 257° West 268 308 9,100 -1,500 Descending FlightAware
01:52PM 45.6910 -73.2070 256° West 268 308 8,300 -1,860 Descending FlightAware
01:52PM 45.6840 -73.2520 257° West 267 307 7,400 -1,980 Descending FlightAware
01:53PM 45.6800 -73.2760 257° West 265 305 7,000 -1,920 Descending FlightAware
01:53PM 45.6720 -73.3280 258° West 263 303 6,000 -1,920 Descending FlightAware
01:53PM 45.6680 -73.3530 257° West 263 303 5,600 -1,980 Descending FlightAware
01:54PM 45.6610 -73.3940 256° West 264 304 4,700 -1,680 Descending FlightAware
01:54PM 45.6460 -73.4410 245° Southwest 260 299 4,100 -1,200 Descending FlightAware
01:54PM 45.6360 -73.4660 240° Southwest 258 297 3,800 -1,200 Descending FlightAware
01:55PM 45.6230 -73.5000 241° Southwest 254 292 3,300 -900 Descending FlightAware
01:55PM 45.6060 -73.5440 241° Southwest 237 273 3,000 -720 Descending FlightAware
01:56PM 45.5980 -73.5650 241° Southwest 228 262 2,800 -600 Descending FlightAware
01:56PM 45.5850 -73.5960 239° Southwest 210 242 2,600 -660 Descending FlightAware
01:57PM 45.5670 -73.6260 229° Southwest 209 241 2,200 -1,140 Descending FlightAware
01:57PM 45.5480 -73.6510 223° Southwest 211 243 1,600 -1,320 Descending FlightAware
01:57PM 45.5280 -73.6770 222° Southwest 181 208 1,000 -1,020 Descending FlightAware
01:58PM 45.5150 -73.6950 224° Southwest 165 190 700 -780 Descending FlightAware
01:58PM 45.4990 -73.7160 223° Southwest 146 168 300 -840 Descending FlightAware
01:59PM 45.4890 -73.7290 222° Southwest 148 170 -900 Descending FlightAware